sensor_id;sensor_type;location;lat;lon;timestamp;temperature;humidity
45207;DHT22;30950;53.086;21.576;2022-10-18T00:00:50;14.80;99.90
45207;DHT22;30950;53.086;21.576;2022-10-18T00:03:35;14.70;99.90
45207;DHT22;30950;53.086;21.576;2022-10-18T00:06:04;14.70;99.90
45207;DHT22;30950;53.086;21.576;2022-10-18T00:08:32;14.70;99.90
45207;DHT22;30950;53.086;21.576;2022-10-18T00:10:59;14.70;99.90
45207;DHT22;30950;53.086;21.576;2022-10-18T00:13:27;14.60;99.90
45207;DHT22;30950;53.086;21.576;2022-10-18T00:15:59;14.60;99.90
45207;DHT22;30950;53.086;21.576;2022-10-18T00:18:30;14.60;99.90
45207;DHT22;30950;53.086;21.576;2022-10-18T00:21:06;14.50;99.90
45207;DHT22;30950;53.086;21.576;2022-10-18T00:23:34;14.60;99.90
45207;DHT22;30950;53.086;21.576;2022-10-18T00:26:12;14.50;99.90
45207;DHT22;30950;53.086;21.576;2022-10-18T00:28:40;14.50;99.90
45207;DHT22;30950;53.086;21.576;2022-10-18T00:33:44;14.50;99.90
45207;DHT22;30950;53.086;21.576;2022-10-18T00:36:13;14.50;99.90
45207;DHT22;30950;53.086;21.576;2022-10-18T00:38:41;14.50;99.90
45207;DHT22;30950;53.086;21.576;2022-10-18T00:41:10;14.50;99.90
45207;DHT22;30950;53.086;21.576;2022-10-18T00:46:36;14.50;99.90
45207;DHT22;30950;53.086;21.576;2022-10-18T00:49:14;14.50;99.90
45207;DHT22;30950;53.086;21.576;2022-10-18T00:51:47;14.40;99.90
45207;DHT22;30950;53.086;21.576;2022-10-18T00:54:17;14.40;99.90
45207;DHT22;30950;53.086;21.576;2022-10-18T00:56:45;14.40;99.90
45207;DHT22;30950;53.086;21.576;2022-10-18T00:59:15;14.40;99.90
45207;DHT22;30950;53.086;21.576;2022-10-18T01:01:44;14.40;99.90
45207;DHT22;30950;53.086;21.576;2022-10-18T01:04:16;14.30;99.90
45207;DHT22;30950;53.086;21.576;2022-10-18T01:12:19;14.30;99.90
45207;DHT22;30950;53.086;21.576;2022-10-18T01:15:12;14.30;99.90
45207;DHT22;30950;53.086;21.576;2022-10-18T01:18:06;14.20;99.90
45207;DHT22;30950;53.086;21.576;2022-10-18T01:32:06;14.10;99.90
45207;DHT22;30950;53.086;21.576;2022-10-18T01:34:37;14.10;99.90
45207;DHT22;30950;53.086;21.576;2022-10-18T01:37:08;14.10;99.90
45207;DHT22;30950;53.086;21.576;2022-10-18T01:39:39;14.00;99.90
45207;DHT22;30950;53.086;21.576;2022-10-18T01:42:10;14.00;99.90
45207;DHT22;30950;53.086;21.576;2022-10-18T01:44:40;14.00;99.90
45207;DHT22;30950;53.086;21.576;2022-10-18T01:47:10;14.00;99.90
45207;DHT22;30950;53.086;21.576;2022-10-18T01:49:39;13.90;99.90
45207;DHT22;30950;53.086;21.576;2022-10-18T01:52:11;13.90;99.90
45207;DHT22;30950;53.086;21.576;2022-10-18T01:54:41;13.90;99.90
45207;DHT22;30950;53.086;21.576;2022-10-18T02:00:00;13.80;99.90
45207;DHT22;30950;53.086;21.576;2022-10-18T02:02:59;13.70;99.90
45207;DHT22;30950;53.086;21.576;2022-10-18T02:05:49;13.70;99.90
45207;DHT22;30950;53.086;21.576;2022-10-18T02:11:05;13.60;99.90
45207;DHT22;30950;53.086;21.576;2022-10-18T02:13:43;13.60;99.90
45207;DHT22;30950;53.086;21.576;2022-10-18T02:16:16;13.50;99.90
45207;DHT22;30950;53.086;21.576;2022-10-18T02:18:49;13.50;99.90
45207;DHT22;30950;53.086;21.576;2022-10-18T02:21:20;13.50;99.90
45207;DHT22;30950;53.086;21.576;2022-10-18T02:23:49;13.40;99.90
45207;DHT22;30950;53.086;21.576;2022-10-18T02:26:17;13.40;99.90
45207;DHT22;30950;53.086;21.576;2022-10-18T02:28:45;13.40;99.90
45207;DHT22;30950;53.086;21.576;2022-10-18T02:31:18;13.30;99.90
45207;DHT22;30950;53.086;21.576;2022-10-18T02:33:53;13.30;99.90
45207;DHT22;30950;53.086;21.576;2022-10-18T02:36:33;13.30;99.90
45207;DHT22;30950;53.086;21.576;2022-10-18T02:39:09;13.20;99.90
45207;DHT22;30950;53.086;21.576;2022-10-18T02:41:41;13.20;99.90
45207;DHT22;30950;53.086;21.576;2022-10-18T02:44:10;13.20;99.90
45207;DHT22;30950;53.086;21.576;2022-10-18T02:46:38;13.10;99.90
45207;DHT22;30950;53.086;21.576;2022-10-18T02:49:06;13.10;99.90
45207;DHT22;30950;53.086;21.576;2022-10-18T02:51:34;13.10;99.90
45207;DHT22;30950;53.086;21.576;2022-10-18T02:54:04;13.10;99.90
45207;DHT22;30950;53.086;21.576;2022-10-18T02:56:31;13.10;99.90
45207;DHT22;30950;53.086;21.576;2022-10-18T02:58:59;13.00;99.90
45207;DHT22;30950;53.086;21.576;2022-10-18T03:01:27;13.00;99.90
45207;DHT22;30950;53.086;21.576;2022-10-18T03:03:56;13.00;99.90
45207;DHT22;30950;53.086;21.576;2022-10-18T03:06:24;13.00;99.90
45207;DHT22;30950;53.086;21.576;2022-10-18T03:08:52;13.00;99.90
45207;DHT22;30950;53.086;21.576;2022-10-18T03:11:19;13.00;99.90
45207;DHT22;30950;53.086;21.576;2022-10-18T03:13:47;13.00;99.90
45207;DHT22;30950;53.086;21.576;2022-10-18T03:16:16;13.00;99.90
45207;DHT22;30950;53.086;21.576;2022-10-18T03:18:44;13.00;99.90
45207;DHT22;30950;53.086;21.576;2022-10-18T03:21:12;13.00;99.90
45207;DHT22;30950;53.086;21.576;2022-10-18T03:23:40;13.00;99.90
45207;DHT22;30950;53.086;21.576;2022-10-18T03:26:09;12.90;99.90
45207;DHT22;30950;53.086;21.576;2022-10-18T03:28:37;12.90;99.90
45207;DHT22;30950;53.086;21.576;2022-10-18T03:31:05;12.90;99.90
45207;DHT22;30950;53.086;21.576;2022-10-18T03:33:32;12.90;99.90
45207;DHT22;30950;53.086;21.576;2022-10-18T03:35:59;12.80;99.90
45207;DHT22;30950;53.086;21.576;2022-10-18T03:38:27;12.80;99.90
45207;DHT22;30950;53.086;21.576;2022-10-18T03:40:55;12.80;99.90
45207;DHT22;30950;53.086;21.576;2022-10-18T03:43:22;12.80;99.90
45207;DHT22;30950;53.086;21.576;2022-10-18T03:45:50;12.80;99.90
45207;DHT22;30950;53.086;21.576;2022-10-18T03:48:18;12.80;99.90
45207;DHT22;30950;53.086;21.576;2022-10-18T03:50:46;12.80;99.90
45207;DHT22;30950;53.086;21.576;2022-10-18T03:53:13;12.70;99.90
45207;DHT22;30950;53.086;21.576;2022-10-18T03:55:41;12.80;99.90
45207;DHT22;30950;53.086;21.576;2022-10-18T03:58:08;12.70;99.90
45207;DHT22;30950;53.086;21.576;2022-10-18T04:00:35;12.70;99.90
45207;DHT22;30950;53.086;21.576;2022-10-18T04:03:03;12.60;99.90
45207;DHT22;30950;53.086;21.576;2022-10-18T04:05:31;12.60;99.90
45207;DHT22;30950;53.086;21.576;2022-10-18T04:07:58;12.60;99.90
45207;DHT22;30950;53.086;21.576;2022-10-18T04:10:26;12.60;99.90
45207;DHT22;30950;53.086;21.576;2022-10-18T04:12:53;12.60;99.90
45207;DHT22;30950;53.086;21.576;2022-10-18T04:15:20;12.50;99.90
45207;DHT22;30950;53.086;21.576;2022-10-18T04:17:48;12.50;99.90
45207;DHT22;30950;53.086;21.576;2022-10-18T04:20:15;12.50;99.90
45207;DHT22;30950;53.086;21.576;2022-10-18T04:22:43;12.40;99.90
45207;DHT22;30950;53.086;21.576;2022-10-18T04:25:10;12.40;99.90
45207;DHT22;30950;53.086;21.576;2022-10-18T04:27:38;12.50;99.90
45207;DHT22;30950;53.086;21.576;2022-10-18T04:30:06;12.40;99.90
45207;DHT22;30950;53.086;21.576;2022-10-18T04:32:34;12.40;99.90
45207;DHT22;30950;53.086;21.576;2022-10-18T04:35:02;12.40;99.90
45207;DHT22;30950;53.086;21.576;2022-10-18T04:37:31;12.40;99.90
45207;DHT22;30950;53.086;21.576;2022-10-18T04:39:58;12.40;99.90
45207;DHT22;30950;53.086;21.576;2022-10-18T04:42:26;12.30;99.90
45207;DHT22;30950;53.086;21.576;2022-10-18T04:44:53;12.30;99.90
45207;DHT22;30950;53.086;21.576;2022-10-18T04:47:21;12.30;99.90
45207;DHT22;30950;53.086;21.576;2022-10-18T04:49:48;12.30;99.90
45207;DHT22;30950;53.086;21.576;2022-10-18T04:52:16;12.30;99.90
45207;DHT22;30950;53.086;21.576;2022-10-18T04:54:43;12.30;99.90
45207;DHT22;30950;53.086;21.576;2022-10-18T04:57:11;12.30;99.90
45207;DHT22;30950;53.086;21.576;2022-10-18T04:59:38;12.30;99.90
45207;DHT22;30950;53.086;21.576;2022-10-18T05:02:06;12.30;99.90
45207;DHT22;30950;53.086;21.576;2022-10-18T05:04:33;12.20;99.90
45207;DHT22;30950;53.086;21.576;2022-10-18T05:07:01;12.20;99.90
45207;DHT22;30950;53.086;21.576;2022-10-18T05:09:29;12.20;99.90
45207;DHT22;30950;53.086;21.576;2022-10-18T05:11:57;12.20;99.90
45207;DHT22;30950;53.086;21.576;2022-10-18T05:14:24;12.20;99.90
45207;DHT22;30950;53.086;21.576;2022-10-18T05:16:52;12.20;99.90
45207;DHT22;30950;53.086;21.576;2022-10-18T05:19:19;12.20;99.90
45207;DHT22;30950;53.086;21.576;2022-10-18T05:21:47;12.10;99.90
45207;DHT22;30950;53.086;21.576;2022-10-18T05:24:15;12.10;99.90
45207;DHT22;30950;53.086;21.576;2022-10-18T05:26:42;12.10;99.90
45207;DHT22;30950;53.086;21.576;2022-10-18T05:29:10;12.10;99.90
45207;DHT22;30950;53.086;21.576;2022-10-18T05:31:37;12.10;99.90
45207;DHT22;30950;53.086;21.576;2022-10-18T05:34:05;12.10;99.90
45207;DHT22;30950;53.086;21.576;2022-10-18T05:36:32;12.10;99.90
45207;DHT22;30950;53.086;21.576;2022-10-18T05:39:03;12.10;99.90
45207;DHT22;30950;53.086;21.576;2022-10-18T05:41:31;12.10;99.90
45207;DHT22;30950;53.086;21.576;2022-10-18T05:44:02;12.10;99.90
45207;DHT22;30950;53.086;21.576;2022-10-18T05:46:31;12.20;99.90
45207;DHT22;30950;53.086;21.576;2022-10-18T05:48:58;12.10;99.90
45207;DHT22;30950;53.086;21.576;2022-10-18T05:51:26;12.20;99.90
45207;DHT22;30950;53.086;21.576;2022-10-18T05:53:53;12.20;99.90
45207;DHT22;30950;53.086;21.576;2022-10-18T05:56:21;12.20;99.90
45207;DHT22;30950;53.086;21.576;2022-10-18T05:58:50;12.30;99.90
45207;DHT22;30950;53.086;21.576;2022-10-18T06:01:18;12.40;99.90
45207;DHT22;30950;53.086;21.576;2022-10-18T06:03:46;12.40;99.90
45207;DHT22;30950;53.086;21.576;2022-10-18T06:06:14;12.50;99.90
45207;DHT22;30950;53.086;21.576;2022-10-18T06:08:42;12.50;99.90
45207;DHT22;30950;53.086;21.576;2022-10-18T06:11:18;12.60;99.90
45207;DHT22;30950;53.086;21.576;2022-10-18T06:13:47;12.60;99.90
45207;DHT22;30950;53.086;21.576;2022-10-18T06:16:18;12.70;99.90
45207;DHT22;30950;53.086;21.576;2022-10-18T06:18:53;12.70;99.90
45207;DHT22;30950;53.086;21.576;2022-10-18T06:21:23;12.80;99.90
45207;DHT22;30950;53.086;21.576;2022-10-18T06:23:58;12.90;99.90
45207;DHT22;30950;53.086;21.576;2022-10-18T06:26:26;12.90;99.90
45207;DHT22;30950;53.086;21.576;2022-10-18T06:28:54;13.00;99.90
45207;DHT22;30950;53.086;21.576;2022-10-18T06:31:21;13.10;99.90
45207;DHT22;30950;53.086;21.576;2022-10-18T06:33:49;13.10;99.90
45207;DHT22;30950;53.086;21.576;2022-10-18T06:36:19;13.20;99.90
45207;DHT22;30950;53.086;21.576;2022-10-18T06:38:50;13.30;99.90
45207;DHT22;30950;53.086;21.576;2022-10-18T06:41:19;13.40;99.90
45207;DHT22;30950;53.086;21.576;2022-10-18T06:43:51;13.40;99.90
45207;DHT22;30950;53.086;21.576;2022-10-18T06:46:19;13.60;99.90
45207;DHT22;30950;53.086;21.576;2022-10-18T06:48:46;13.70;99.90
45207;DHT22;30950;53.086;21.576;2022-10-18T06:51:14;13.80;99.90
45207;DHT22;30950;53.086;21.576;2022-10-18T06:53:41;13.90;99.90
45207;DHT22;30950;53.086;21.576;2022-10-18T06:56:29;14.00;99.90
45207;DHT22;30950;53.086;21.576;2022-10-18T06:58:56;14.10;99.90
45207;DHT22;30950;53.086;21.576;2022-10-18T07:01:25;14.20;99.90
45207;DHT22;30950;53.086;21.576;2022-10-18T07:03:55;14.30;99.90
45207;DHT22;30950;53.086;21.576;2022-10-18T07:06:23;14.40;99.90
45207;DHT22;30950;53.086;21.576;2022-10-18T07:08:50;14.40;99.90
45207;DHT22;30950;53.086;21.576;2022-10-18T07:11:22;14.50;99.90
45207;DHT22;30950;53.086;21.576;2022-10-18T07:13:52;14.60;99.90
45207;DHT22;30950;53.086;21.576;2022-10-18T07:16:27;14.60;99.90
45207;DHT22;30950;53.086;21.576;2022-10-18T07:18:54;14.70;99.90
45207;DHT22;30950;53.086;21.576;2022-10-18T07:21:23;14.70;99.90
45207;DHT22;30950;53.086;21.576;2022-10-18T07:23:52;14.80;99.90
45207;DHT22;30950;53.086;21.576;2022-10-18T07:26:22;14.90;99.90
45207;DHT22;30950;53.086;21.576;2022-10-18T07:28:53;15.00;99.90
45207;DHT22;30950;53.086;21.576;2022-10-18T07:31:22;15.20;99.90
45207;DHT22;30950;53.086;21.576;2022-10-18T07:33:50;15.20;99.90
45207;DHT22;30950;53.086;21.576;2022-10-18T07:36:18;15.30;99.90
45207;DHT22;30950;53.086;21.576;2022-10-18T07:38:48;15.40;99.90
45207;DHT22;30950;53.086;21.576;2022-10-18T07:41:16;15.50;99.90
45207;DHT22;30950;53.086;21.576;2022-10-18T07:43:45;15.60;99.90
45207;DHT22;30950;53.086;21.576;2022-10-18T07:46:13;15.70;99.90
45207;DHT22;30950;53.086;21.576;2022-10-18T07:48:41;15.80;99.90
45207;DHT22;30950;53.086;21.576;2022-10-18T07:51:09;15.90;99.90
45207;DHT22;30950;53.086;21.576;2022-10-18T07:53:37;16.00;99.90
45207;DHT22;30950;53.086;21.576;2022-10-18T07:56:07;16.00;99.90
45207;DHT22;30950;53.086;21.576;2022-10-18T07:58:37;16.00;99.90
45207;DHT22;30950;53.086;21.576;2022-10-18T08:01:06;16.20;99.90
45207;DHT22;30950;53.086;21.576;2022-10-18T08:03:35;16.20;99.90
45207;DHT22;30950;53.086;21.576;2022-10-18T08:06:05;16.30;99.90
45207;DHT22;30950;53.086;21.576;2022-10-18T08:08:36;16.30;99.90
45207;DHT22;30950;53.086;21.576;2022-10-18T08:11:16;16.40;99.90
45207;DHT22;30950;53.086;21.576;2022-10-18T08:13:44;16.40;99.90
45207;DHT22;30950;53.086;21.576;2022-10-18T08:16:15;16.40;99.90
45207;DHT22;30950;53.086;21.576;2022-10-18T08:18:43;16.40;99.90
45207;DHT22;30950;53.086;21.576;2022-10-18T08:21:12;16.40;99.90
45207;DHT22;30950;53.086;21.576;2022-10-18T08:23:40;16.50;99.90
45207;DHT22;30950;53.086;21.576;2022-10-18T08:26:11;16.60;99.90
45207;DHT22;30950;53.086;21.576;2022-10-18T08:28:39;16.60;99.90
45207;DHT22;30950;53.086;21.576;2022-10-18T08:31:16;16.70;99.90
45207;DHT22;30950;53.086;21.576;2022-10-18T08:33:44;16.70;99.90
45207;DHT22;30950;53.086;21.576;2022-10-18T08:36:14;16.80;99.90
45207;DHT22;30950;53.086;21.576;2022-10-18T08:38:42;16.90;99.90
45207;DHT22;30950;53.086;21.576;2022-10-18T08:44:29;17.00;99.90
45207;DHT22;30950;53.086;21.576;2022-10-18T08:47:03;16.90;99.90
45207;DHT22;30950;53.086;21.576;2022-10-18T08:49:45;16.90;99.90
45207;DHT22;30950;53.086;21.576;2022-10-18T08:52:57;16.90;99.90
45207;DHT22;30950;53.086;21.576;2022-10-18T08:55:41;16.90;99.90
45207;DHT22;30950;53.086;21.576;2022-10-18T08:58:16;16.90;99.90
45207;DHT22;30950;53.086;21.576;2022-10-18T09:12:39;17.10;99.90
45207;DHT22;30950;53.086;21.576;2022-10-18T09:20:48;17.20;99.90
45207;DHT22;30950;53.086;21.576;2022-10-18T09:23:36;17.30;99.90
45207;DHT22;30950;53.086;21.576;2022-10-18T09:26:22;17.30;99.90
45207;DHT22;30950;53.086;21.576;2022-10-18T09:32:37;17.40;99.90
45207;DHT22;30950;53.086;21.576;2022-10-18T09:35:02;17.40;99.90
45207;DHT22;30950;53.086;21.576;2022-10-18T09:37:33;17.50;99.90
45207;DHT22;30950;53.086;21.576;2022-10-18T09:40:24;17.60;99.90
45207;DHT22;30950;53.086;21.576;2022-10-18T09:42:59;17.60;99.90
45207;DHT22;30950;53.086;21.576;2022-10-18T09:45:34;17.70;99.90
45207;DHT22;30950;53.086;21.576;2022-10-18T09:51:22;17.70;99.90
45207;DHT22;30950;53.086;21.576;2022-10-18T09:57:03;17.80;99.90
45207;DHT22;30950;53.086;21.576;2022-10-18T10:02:19;17.80;99.90
45207;DHT22;30950;53.086;21.576;2022-10-18T10:04:51;17.90;99.90
45207;DHT22;30950;53.086;21.576;2022-10-18T10:12:41;17.90;99.90
45207;DHT22;30950;53.086;21.576;2022-10-18T10:15:21;17.90;99.90
45207;DHT22;30950;53.086;21.576;2022-10-18T10:18:00;17.90;99.90
45207;DHT22;30950;53.086;21.576;2022-10-18T10:20:41;17.80;99.90
45207;DHT22;30950;53.086;21.576;2022-10-18T10:23:23;17.80;99.90
45207;DHT22;30950;53.086;21.576;2022-10-18T10:28:41;17.80;99.90
45207;DHT22;30950;53.086;21.576;2022-10-18T10:36:50;17.60;99.90
45207;DHT22;30950;53.086;21.576;2022-10-18T10:39:19;17.60;99.90
45207;DHT22;30950;53.086;21.576;2022-10-18T10:41:49;17.50;99.90
45207;DHT22;30950;53.086;21.576;2022-10-18T10:44:23;17.40;99.90
45207;DHT22;30950;53.086;21.576;2022-10-18T10:46:51;17.40;99.90
45207;DHT22;30950;53.086;21.576;2022-10-18T10:49:23;17.40;99.90
45207;DHT22;30950;53.086;21.576;2022-10-18T10:52:16;17.30;99.90
45207;DHT22;30950;53.086;21.576;2022-10-18T10:55:02;17.30;99.90
45207;DHT22;30950;53.086;21.576;2022-10-18T10:57:51;17.30;99.90
45207;DHT22;30950;53.086;21.576;2022-10-18T11:00:37;17.30;99.90
45207;DHT22;30950;53.086;21.576;2022-10-18T11:03:14;17.30;99.90
45207;DHT22;30950;53.086;21.576;2022-10-18T11:05:55;17.40;99.90
45207;DHT22;30950;53.086;21.576;2022-10-18T11:08:28;17.40;99.90
45207;DHT22;30950;53.086;21.576;2022-10-18T11:13:50;17.50;99.90
45207;DHT22;30950;53.086;21.576;2022-10-18T11:17:01;17.50;99.90
45207;DHT22;30950;53.086;21.576;2022-10-18T11:22:57;17.40;99.90
45207;DHT22;30950;53.086;21.576;2022-10-18T11:25:57;17.30;99.90
45207;DHT22;30950;53.086;21.576;2022-10-18T11:31:31;17.30;99.90
45207;DHT22;30950;53.086;21.576;2022-10-18T11:43:25;17.30;99.90
45207;DHT22;30950;53.086;21.576;2022-10-18T11:54:51;17.40;99.90
45207;DHT22;30950;53.086;21.576;2022-10-18T12:05:34;17.30;99.90
45207;DHT22;30950;53.086;21.576;2022-10-18T12:08:20;17.30;99.90
45207;DHT22;30950;53.086;21.576;2022-10-18T12:10:54;17.20;99.90
45207;DHT22;30950;53.086;21.576;2022-10-18T12:13:50;17.20;99.90
45207;DHT22;30950;53.086;21.576;2022-10-18T12:16:21;17.20;99.90
45207;DHT22;30950;53.086;21.576;2022-10-18T12:19:21;17.10;99.90
45207;DHT22;30950;53.086;21.576;2022-10-18T12:21:56;17.10;99.90
45207;DHT22;30950;53.086;21.576;2022-10-18T12:24:27;17.10;99.90
45207;DHT22;30950;53.086;21.576;2022-10-18T12:26:59;17.10;99.90
45207;DHT22;30950;53.086;21.576;2022-10-18T12:29:36;17.10;99.90
45207;DHT22;30950;53.086;21.576;2022-10-18T12:32:13;17.10;99.90
45207;DHT22;30950;53.086;21.576;2022-10-18T12:34:51;17.00;99.90
45207;DHT22;30950;53.086;21.576;2022-10-18T12:42:49;17.00;99.90
45207;DHT22;30950;53.086;21.576;2022-10-18T12:45:32;16.90;99.90
45207;DHT22;30950;53.086;21.576;2022-10-18T12:48:04;16.80;99.90
45207;DHT22;30950;53.086;21.576;2022-10-18T12:50:38;16.80;99.90
45207;DHT22;30950;53.086;21.576;2022-10-18T12:53:16;16.70;99.90
45207;DHT22;30950;53.086;21.576;2022-10-18T12:55:47;16.60;99.90
45207;DHT22;30950;53.086;21.576;2022-10-18T13:00:50;16.50;99.90
45207;DHT22;30950;53.086;21.576;2022-10-18T13:03:34;16.50;99.90
45207;DHT22;30950;53.086;21.576;2022-10-18T13:06:03;16.50;99.90
45207;DHT22;30950;53.086;21.576;2022-10-18T13:08:39;16.40;99.90
45207;DHT22;30950;53.086;21.576;2022-10-18T13:16:43;16.40;99.90
45207;DHT22;30950;53.086;21.576;2022-10-18T13:30:32;16.50;99.90
45207;DHT22;30950;53.086;21.576;2022-10-18T13:33:37;16.50;99.90
45207;DHT22;30950;53.086;21.576;2022-10-18T13:36:24;16.50;99.90
45207;DHT22;30950;53.086;21.576;2022-10-18T13:41:31;16.50;99.90
45207;DHT22;30950;53.086;21.576;2022-10-18T13:44:29;16.50;99.90
45207;DHT22;30950;53.086;21.576;2022-10-18T13:52:45;16.50;99.90
45207;DHT22;30950;53.086;21.576;2022-10-18T13:58:57;16.50;99.90
45207;DHT22;30950;53.086;21.576;2022-10-18T14:06:57;16.50;99.90
45207;DHT22;30950;53.086;21.576;2022-10-18T14:09:42;16.50;99.90
45207;DHT22;30950;53.086;21.576;2022-10-18T14:12:24;16.50;99.90
45207;DHT22;30950;53.086;21.576;2022-10-18T14:15:03;16.50;99.90
45207;DHT22;30950;53.086;21.576;2022-10-18T14:17:47;16.50;99.90
45207;DHT22;30950;53.086;21.576;2022-10-18T14:20:23;16.50;99.90
45207;DHT22;30950;53.086;21.576;2022-10-18T14:23:14;16.50;99.90
45207;DHT22;30950;53.086;21.576;2022-10-18T14:25:43;16.50;99.90
45207;DHT22;30950;53.086;21.576;2022-10-18T14:28:15;16.50;99.90
45207;DHT22;30950;53.086;21.576;2022-10-18T14:31:00;16.50;99.90
45207;DHT22;30950;53.086;21.576;2022-10-18T14:38:53;16.40;99.90
45207;DHT22;30950;53.086;21.576;2022-10-18T14:41:34;16.40;99.90
45207;DHT22;30950;53.086;21.576;2022-10-18T14:46:43;16.40;99.90
45207;DHT22;30950;53.086;21.576;2022-10-18T14:49:12;16.30;99.90
45207;DHT22;30950;53.086;21.576;2022-10-18T14:51:42;16.30;99.90
45207;DHT22;30950;53.086;21.576;2022-10-18T14:54:23;16.30;99.90
45207;DHT22;30950;53.086;21.576;2022-10-18T14:56:59;16.20;99.90
45207;DHT22;30950;53.086;21.576;2022-10-18T14:59:31;16.20;99.90
45207;DHT22;30950;53.086;21.576;2022-10-18T15:02:01;16.20;99.90
45207;DHT22;30950;53.086;21.576;2022-10-18T15:04:31;16.10;99.90
45207;DHT22;30950;53.086;21.576;2022-10-18T15:07:01;16.10;99.90
45207;DHT22;30950;53.086;21.576;2022-10-18T15:09:33;16.00;99.90
45207;DHT22;30950;53.086;21.576;2022-10-18T15:12:05;16.00;99.90
45207;DHT22;30950;53.086;21.576;2022-10-18T15:14:34;16.00;99.90
45207;DHT22;30950;53.086;21.576;2022-10-18T15:17:10;15.90;99.90
45207;DHT22;30950;53.086;21.576;2022-10-18T15:19:39;15.80;99.90
45207;DHT22;30950;53.086;21.576;2022-10-18T15:22:23;15.70;99.90
45207;DHT22;30950;53.086;21.576;2022-10-18T15:27:52;15.60;99.90
45207;DHT22;30950;53.086;21.576;2022-10-18T15:30:36;15.60;99.90
45207;DHT22;30950;53.086;21.576;2022-10-18T15:33:05;15.50;99.90
45207;DHT22;30950;53.086;21.576;2022-10-18T15:35:38;15.40;99.90
45207;DHT22;30950;53.086;21.576;2022-10-18T15:38:32;15.40;99.90
45207;DHT22;30950;53.086;21.576;2022-10-18T15:40:59;15.30;99.90
45207;DHT22;30950;53.086;21.576;2022-10-18T15:45:56;15.20;99.90
45207;DHT22;30950;53.086;21.576;2022-10-18T15:48:39;15.10;99.90
45207;DHT22;30950;53.086;21.576;2022-10-18T15:53:55;15.10;99.90
45207;DHT22;30950;53.086;21.576;2022-10-18T15:56:35;15.00;99.90
45207;DHT22;30950;53.086;21.576;2022-10-18T15:59:11;14.90;99.90
45207;DHT22;30950;53.086;21.576;2022-10-18T16:01:46;14.80;99.90
45207;DHT22;30950;53.086;21.576;2022-10-18T16:04:29;14.70;99.90
45207;DHT22;30950;53.086;21.576;2022-10-18T16:06:57;14.70;99.90
45207;DHT22;30950;53.086;21.576;2022-10-18T16:09:26;14.50;99.90
45207;DHT22;30950;53.086;21.576;2022-10-18T16:11:54;14.40;99.90
45207;DHT22;30950;53.086;21.576;2022-10-18T16:14:24;14.30;99.90
45207;DHT22;30950;53.086;21.576;2022-10-18T16:16:57;14.20;99.90
45207;DHT22;30950;53.086;21.576;2022-10-18T16:19:28;14.10;99.90
45207;DHT22;30950;53.086;21.576;2022-10-18T16:21:55;14.00;99.90
45207;DHT22;30950;53.086;21.576;2022-10-18T16:24:26;13.90;99.90
45207;DHT22;30950;53.086;21.576;2022-10-18T16:26:53;13.80;99.90
45207;DHT22;30950;53.086;21.576;2022-10-18T16:29:22;13.70;99.90
45207;DHT22;30950;53.086;21.576;2022-10-18T16:31:54;13.70;99.90
45207;DHT22;30950;53.086;21.576;2022-10-18T16:34:25;13.70;99.90
45207;DHT22;30950;53.086;21.576;2022-10-18T16:36:53;13.70;99.90
45207;DHT22;30950;53.086;21.576;2022-10-18T16:39:21;13.60;99.90
45207;DHT22;30950;53.086;21.576;2022-10-18T16:41:49;13.50;99.90
45207;DHT22;30950;53.086;21.576;2022-10-18T16:44:17;13.50;99.90
45207;DHT22;30950;53.086;21.576;2022-10-18T16:46:45;13.50;99.90
45207;DHT22;30950;53.086;21.576;2022-10-18T16:49:23;13.50;99.90
45207;DHT22;30950;53.086;21.576;2022-10-18T16:51:52;13.50;99.90
45207;DHT22;30950;53.086;21.576;2022-10-18T16:54:20;13.50;99.90
45207;DHT22;30950;53.086;21.576;2022-10-18T16:56:48;13.40;99.90
45207;DHT22;30950;53.086;21.576;2022-10-18T16:59:28;13.30;99.90
45207;DHT22;30950;53.086;21.576;2022-10-18T17:01:56;13.30;99.90
45207;DHT22;30950;53.086;21.576;2022-10-18T17:04:24;13.20;99.90
45207;DHT22;30950;53.086;21.576;2022-10-18T17:06:53;13.20;99.90
45207;DHT22;30950;53.086;21.576;2022-10-18T17:09:22;13.10;99.90
45207;DHT22;30950;53.086;21.576;2022-10-18T17:11:49;13.10;99.90
45207;DHT22;30950;53.086;21.576;2022-10-18T17:14:17;13.00;99.90
45207;DHT22;30950;53.086;21.576;2022-10-18T17:16:44;13.00;99.90
45207;DHT22;30950;53.086;21.576;2022-10-18T17:19:19;12.80;99.90
45207;DHT22;30950;53.086;21.576;2022-10-18T17:21:46;12.80;99.90
45207;DHT22;30950;53.086;21.576;2022-10-18T17:24:13;12.80;99.90
45207;DHT22;30950;53.086;21.576;2022-10-18T17:26:41;12.70;99.90
45207;DHT22;30950;53.086;21.576;2022-10-18T17:29:09;12.70;99.90
45207;DHT22;30950;53.086;21.576;2022-10-18T17:31:36;12.70;99.90
45207;DHT22;30950;53.086;21.576;2022-10-18T17:34:03;12.70;99.90
45207;DHT22;30950;53.086;21.576;2022-10-18T17:36:32;12.60;99.90
45207;DHT22;30950;53.086;21.576;2022-10-18T17:38:59;12.60;99.90
45207;DHT22;30950;53.086;21.576;2022-10-18T17:41:27;12.60;99.90
45207;DHT22;30950;53.086;21.576;2022-10-18T17:43:54;12.50;99.90
45207;DHT22;30950;53.086;21.576;2022-10-18T17:46:25;12.50;99.90
45207;DHT22;30950;53.086;21.576;2022-10-18T17:48:54;12.50;99.90
45207;DHT22;30950;53.086;21.576;2022-10-18T17:51:21;12.40;99.90
45207;DHT22;30950;53.086;21.576;2022-10-18T17:53:49;12.30;99.90
45207;DHT22;30950;53.086;21.576;2022-10-18T17:56:17;12.30;99.90
45207;DHT22;30950;53.086;21.576;2022-10-18T17:58:44;12.20;99.90
45207;DHT22;30950;53.086;21.576;2022-10-18T18:01:18;12.20;99.90
45207;DHT22;30950;53.086;21.576;2022-10-18T18:03:46;12.10;99.90
45207;DHT22;30950;53.086;21.576;2022-10-18T18:06:19;12.10;99.90
45207;DHT22;30950;53.086;21.576;2022-10-18T18:08:48;12.10;99.90
45207;DHT22;30950;53.086;21.576;2022-10-18T18:11:16;12.10;99.90
45207;DHT22;30950;53.086;21.576;2022-10-18T18:13:44;12.00;99.90
45207;DHT22;30950;53.086;21.576;2022-10-18T18:16:20;12.00;99.90
45207;DHT22;30950;53.086;21.576;2022-10-18T18:18:50;12.00;99.90
45207;DHT22;30950;53.086;21.576;2022-10-18T18:21:18;11.90;99.90
45207;DHT22;30950;53.086;21.576;2022-10-18T18:23:47;11.90;99.90
45207;DHT22;30950;53.086;21.576;2022-10-18T18:26:16;11.90;99.90
45207;DHT22;30950;53.086;21.576;2022-10-18T18:28:44;11.90;99.90
45207;DHT22;30950;53.086;21.576;2022-10-18T18:31:17;11.90;99.90
45207;DHT22;30950;53.086;21.576;2022-10-18T18:33:45;11.90;99.90